sensor_id;sensor_type;location;lat;lon;timestamp;P1;durP1;ratioP1;P2;durP2;ratioP2
69750;SDS011;57335;52.288;6.056;2023-10-19T00:01:15;15.23;;;6.97;;
69750;SDS011;57335;52.288;6.056;2023-10-19T00:03:42;15.02;;;7.65;;
69750;SDS011;57335;52.288;6.056;2023-10-19T00:06:12;17.75;;;7.55;;
69750;SDS011;57335;52.288;6.056;2023-10-19T00:08:38;16.63;;;7.43;;
69750;SDS011;57335;52.288;6.056;2023-10-19T00:11:08;14.65;;;6.60;;
69750;SDS011;57335;52.288;6.056;2023-10-19T00:13:53;16.05;;;7.03;;
69750;SDS011;57335;52.288;6.056;2023-10-19T00:16:24;12.02;;;5.32;;
69750;SDS011;57335;52.288;6.056;2023-10-19T00:18:55;15.95;;;6.68;;
69750;SDS011;57335;52.288;6.056;2023-10-19T00:21:26;16.27;;;7.15;;
69750;SDS011;57335;52.288;6.056;2023-10-19T00:23:54;14.40;;;5.78;;
69750;SDS011;57335;52.288;6.056;2023-10-19T00:26:24;16.75;;;6.63;;
69750;SDS011;57335;52.288;6.056;2023-10-19T00:28:51;14.77;;;6.80;;
69750;SDS011;57335;52.288;6.056;2023-10-19T00:31:27;17.17;;;7.60;;
69750;SDS011;57335;52.288;6.056;2023-10-19T00:33:54;18.08;;;7.43;;
69750;SDS011;57335;52.288;6.056;2023-10-19T00:36:22;16.45;;;7.40;;
69750;SDS011;57335;52.288;6.056;2023-10-19T00:38:49;17.05;;;6.63;;
69750;SDS011;57335;52.288;6.056;2023-10-19T00:41:26;14.05;;;6.78;;
69750;SDS011;57335;52.288;6.056;2023-10-19T00:43:56;16.67;;;7.00;;
69750;SDS011;57335;52.288;6.056;2023-10-19T00:46:29;18.40;;;7.45;;
69750;SDS011;57335;52.288;6.056;2023-10-19T00:49:05;18.05;;;7.93;;
69750;SDS011;57335;52.288;6.056;2023-10-19T00:51:34;15.55;;;7.10;;
69750;SDS011;57335;52.288;6.056;2023-10-19T00:54:10;18.50;;;8.57;;
69750;SDS011;57335;52.288;6.056;2023-10-19T00:56:43;14.88;;;6.70;;
69750;SDS011;57335;52.288;6.056;2023-10-19T01:01:47;17.52;;;7.63;;
69750;SDS011;57335;52.288;6.056;2023-10-19T01:04:43;19.70;;;8.65;;
69750;SDS011;57335;52.288;6.056;2023-10-19T01:07:11;20.70;;;9.30;;
69750;SDS011;57335;52.288;6.056;2023-10-19T01:09:42;20.75;;;9.07;;
69750;SDS011;57335;52.288;6.056;2023-10-19T01:12:10;22.55;;;9.38;;
69750;SDS011;57335;52.288;6.056;2023-10-19T01:17:29;20.55;;;9.35;;
69750;SDS011;57335;52.288;6.056;2023-10-19T01:19:57;21.23;;;9.32;;
69750;SDS011;57335;52.288;6.056;2023-10-19T01:22:24;22.58;;;9.88;;
69750;SDS011;57335;52.288;6.056;2023-10-19T01:24:53;23.35;;;9.43;;
69750;SDS011;57335;52.288;6.056;2023-10-19T01:27:21;23.33;;;9.60;;
69750;SDS011;57335;52.288;6.056;2023-10-19T01:29:48;28.77;;;11.05;;
69750;SDS011;57335;52.288;6.056;2023-10-19T01:32:18;25.85;;;9.95;;
69750;SDS011;57335;52.288;6.056;2023-10-19T01:34:44;27.02;;;10.95;;
69750;SDS011;57335;52.288;6.056;2023-10-19T01:37:11;25.70;;;11.35;;
69750;SDS011;57335;52.288;6.056;2023-10-19T01:39:38;26.35;;;11.02;;
69750;SDS011;57335;52.288;6.056;2023-10-19T01:42:08;25.58;;;11.02;;
69750;SDS011;57335;52.288;6.056;2023-10-19T01:44:35;27.63;;;11.10;;
69750;SDS011;57335;52.288;6.056;2023-10-19T01:47:02;25.75;;;9.85;;
69750;SDS011;57335;52.288;6.056;2023-10-19T01:49:32;24.63;;;10.27;;
69750;SDS011;57335;52.288;6.056;2023-10-19T01:51:58;26.92;;;11.13;;
69750;SDS011;57335;52.288;6.056;2023-10-19T01:54:26;27.00;;;11.23;;
69750;SDS011;57335;52.288;6.056;2023-10-19T01:56:53;26.30;;;10.70;;
69750;SDS011;57335;52.288;6.056;2023-10-19T01:59:22;26.70;;;11.60;;
69750;SDS011;57335;52.288;6.056;2023-10-19T02:01:53;28.05;;;11.77;;
69750;SDS011;57335;52.288;6.056;2023-10-19T02:04:21;29.20;;;11.93;;
69750;SDS011;57335;52.288;6.056;2023-10-19T02:06:48;28.40;;;12.10;;
69750;SDS011;57335;52.288;6.056;2023-10-19T02:09:15;26.98;;;10.75;;
69750;SDS011;57335;52.288;6.056;2023-10-19T02:11:50;28.60;;;11.93;;
69750;SDS011;57335;52.288;6.056;2023-10-19T02:14:23;34.83;;;12.77;;
69750;SDS011;57335;52.288;6.056;2023-10-19T02:16:55;28.40;;;13.02;;
69750;SDS011;57335;52.288;6.056;2023-10-19T02:19:26;28.95;;;12.57;;
69750;SDS011;57335;52.288;6.056;2023-10-19T02:21:58;29.77;;;11.85;;
69750;SDS011;57335;52.288;6.056;2023-10-19T02:24:29;31.50;;;13.63;;
69750;SDS011;57335;52.288;6.056;2023-10-19T02:26:56;30.70;;;13.27;;
69750;SDS011;57335;52.288;6.056;2023-10-19T02:29:23;36.95;;;14.40;;
69750;SDS011;57335;52.288;6.056;2023-10-19T02:31:52;37.85;;;14.40;;
69750;SDS011;57335;52.288;6.056;2023-10-19T02:34:20;35.40;;;15.40;;
69750;SDS011;57335;52.288;6.056;2023-10-19T02:36:46;34.67;;;14.48;;
69750;SDS011;57335;52.288;6.056;2023-10-19T02:39:16;37.97;;;16.50;;
69750;SDS011;57335;52.288;6.056;2023-10-19T02:41:46;41.63;;;15.95;;
69750;SDS011;57335;52.288;6.056;2023-10-19T02:44:19;42.15;;;16.85;;
69750;SDS011;57335;52.288;6.056;2023-10-19T02:46:49;39.67;;;15.60;;
69750;SDS011;57335;52.288;6.056;2023-10-19T02:49:24;41.05;;;16.10;;
69750;SDS011;57335;52.288;6.056;2023-10-19T02:51:56;42.53;;;16.88;;
69750;SDS011;57335;52.288;6.056;2023-10-19T02:54:29;41.47;;;15.93;;
69750;SDS011;57335;52.288;6.056;2023-10-19T02:56:59;39.67;;;17.15;;
69750;SDS011;57335;52.288;6.056;2023-10-19T02:59:26;38.42;;;16.55;;
69750;SDS011;57335;52.288;6.056;2023-10-19T03:04:37;39.88;;;16.42;;
69750;SDS011;57335;52.288;6.056;2023-10-19T03:07:05;44.20;;;18.02;;
69750;SDS011;57335;52.288;6.056;2023-10-19T03:09:33;45.78;;;16.95;;
69750;SDS011;57335;52.288;6.056;2023-10-19T03:12:03;40.63;;;16.95;;
69750;SDS011;57335;52.288;6.056;2023-10-19T03:14:31;44.75;;;17.92;;
69750;SDS011;57335;52.288;6.056;2023-10-19T03:16:59;44.63;;;17.35;;
69750;SDS011;57335;52.288;6.056;2023-10-19T03:19:26;42.85;;;17.38;;
69750;SDS011;57335;52.288;6.056;2023-10-19T03:21:53;40.55;;;17.10;;
69750;SDS011;57335;52.288;6.056;2023-10-19T03:24:21;43.17;;;16.80;;
69750;SDS011;57335;52.288;6.056;2023-10-19T03:27:13;45.53;;;17.85;;
69750;SDS011;57335;52.288;6.056;2023-10-19T03:29:51;43.15;;;17.27;;
69750;SDS011;57335;52.288;6.056;2023-10-19T03:32:22;39.85;;;16.35;;
69750;SDS011;57335;52.288;6.056;2023-10-19T03:34:57;41.25;;;17.08;;
69750;SDS011;57335;52.288;6.056;2023-10-19T03:37:25;44.90;;;18.15;;
69750;SDS011;57335;52.288;6.056;2023-10-19T03:39:54;40.92;;;16.15;;
69750;SDS011;57335;52.288;6.056;2023-10-19T03:42:24;43.92;;;16.52;;
69750;SDS011;57335;52.288;6.056;2023-10-19T03:45:09;41.28;;;17.13;;
69750;SDS011;57335;52.288;6.056;2023-10-19T03:47:42;36.67;;;15.02;;
69750;SDS011;57335;52.288;6.056;2023-10-19T03:50:15;41.45;;;16.02;;
69750;SDS011;57335;52.288;6.056;2023-10-19T03:52:46;37.80;;;16.15;;
69750;SDS011;57335;52.288;6.056;2023-10-19T03:55:13;39.38;;;15.98;;
69750;SDS011;57335;52.288;6.056;2023-10-19T04:00:21;38.65;;;15.65;;
69750;SDS011;57335;52.288;6.056;2023-10-19T04:02:53;39.60;;;15.20;;
69750;SDS011;57335;52.288;6.056;2023-10-19T04:05:20;33.90;;;14.43;;
69750;SDS011;57335;52.288;6.056;2023-10-19T04:07:49;38.60;;;15.20;;
69750;SDS011;57335;52.288;6.056;2023-10-19T04:10:23;34.85;;;14.45;;
69750;SDS011;57335;52.288;6.056;2023-10-19T04:12:57;40.33;;;14.40;;
69750;SDS011;57335;52.288;6.056;2023-10-19T04:15:27;37.67;;;14.35;;
69750;SDS011;57335;52.288;6.056;2023-10-19T04:18:01;38.00;;;14.80;;
69750;SDS011;57335;52.288;6.056;2023-10-19T04:20:34;34.50;;;14.00;;
69750;SDS011;57335;52.288;6.056;2023-10-19T04:23:19;39.53;;;14.30;;
69750;SDS011;57335;52.288;6.056;2023-10-19T04:25:47;37.33;;;13.98;;
69750;SDS011;57335;52.288;6.056;2023-10-19T04:28:14;33.22;;;13.48;;
69750;SDS011;57335;52.288;6.056;2023-10-19T04:30:41;33.92;;;13.40;;
69750;SDS011;57335;52.288;6.056;2023-10-19T04:33:07;34.35;;;13.23;;
69750;SDS011;57335;52.288;6.056;2023-10-19T04:35:36;34.35;;;14.18;;
69750;SDS011;57335;52.288;6.056;2023-10-19T04:38:03;34.10;;;13.15;;
69750;SDS011;57335;52.288;6.056;2023-10-19T04:40:33;31.50;;;13.15;;
69750;SDS011;57335;52.288;6.056;2023-10-19T04:43:02;30.98;;;12.52;;
69750;SDS011;57335;52.288;6.056;2023-10-19T04:45:32;32.08;;;12.65;;
69750;SDS011;57335;52.288;6.056;2023-10-19T04:47:58;31.05;;;12.10;;
69750;SDS011;57335;52.288;6.056;2023-10-19T04:50:25;36.63;;;12.52;;
69750;SDS011;57335;52.288;6.056;2023-10-19T04:52:51;31.15;;;11.95;;
69750;SDS011;57335;52.288;6.056;2023-10-19T04:55:18;30.48;;;11.88;;
69750;SDS011;57335;52.288;6.056;2023-10-19T04:57:44;30.92;;;12.18;;
69750;SDS011;57335;52.288;6.056;2023-10-19T05:00:11;32.20;;;12.30;;
69750;SDS011;57335;52.288;6.056;2023-10-19T05:02:40;31.95;;;11.63;;
69750;SDS011;57335;52.288;6.056;2023-10-19T05:05:07;26.65;;;10.57;;
69750;SDS011;57335;52.288;6.056;2023-10-19T05:07:35;27.65;;;10.95;;
69750;SDS011;57335;52.288;6.056;2023-10-19T05:10:01;27.90;;;11.07;;
69750;SDS011;57335;52.288;6.056;2023-10-19T05:12:29;26.25;;;10.80;;
69750;SDS011;57335;52.288;6.056;2023-10-19T05:14:55;24.40;;;10.32;;
69750;SDS011;57335;52.288;6.056;2023-10-19T05:17:21;23.95;;;10.43;;
69750;SDS011;57335;52.288;6.056;2023-10-19T05:19:49;26.15;;;9.57;;
69750;SDS011;57335;52.288;6.056;2023-10-19T05:22:16;21.45;;;9.88;;
69750;SDS011;57335;52.288;6.056;2023-10-19T05:24:43;23.95;;;9.40;;
69750;SDS011;57335;52.288;6.056;2023-10-19T05:27:09;24.70;;;9.70;;
69750;SDS011;57335;52.288;6.056;2023-10-19T05:29:39;21.77;;;9.45;;
69750;SDS011;57335;52.288;6.056;2023-10-19T05:32:06;23.95;;;8.70;;
69750;SDS011;57335;52.288;6.056;2023-10-19T05:34:33;23.95;;;9.15;;
69750;SDS011;57335;52.288;6.056;2023-10-19T05:37:01;22.08;;;8.90;;
69750;SDS011;57335;52.288;6.056;2023-10-19T05:39:28;22.13;;;8.80;;
69750;SDS011;57335;52.288;6.056;2023-10-19T05:41:57;21.10;;;8.68;;
69750;SDS011;57335;52.288;6.056;2023-10-19T05:44:28;20.38;;;7.70;;
69750;SDS011;57335;52.288;6.056;2023-10-19T05:46:57;23.75;;;8.80;;
69750;SDS011;57335;52.288;6.056;2023-10-19T05:49:25;19.80;;;7.97;;
69750;SDS011;57335;52.288;6.056;2023-10-19T05:51:52;20.98;;;8.32;;
69750;SDS011;57335;52.288;6.056;2023-10-19T05:54:18;23.77;;;8.70;;
69750;SDS011;57335;52.288;6.056;2023-10-19T05:56:45;19.30;;;7.72;;
69750;SDS011;57335;52.288;6.056;2023-10-19T05:59:12;23.13;;;8.73;;
69750;SDS011;57335;52.288;6.056;2023-10-19T06:01:39;20.67;;;8.38;;
69750;SDS011;57335;52.288;6.056;2023-10-19T06:04:07;21.98;;;8.38;;
69750;SDS011;57335;52.288;6.056;2023-10-19T06:06:34;20.27;;;8.23;;
69750;SDS011;57335;52.288;6.056;2023-10-19T06:09:02;20.52;;;9.18;;
69750;SDS011;57335;52.288;6.056;2023-10-19T06:11:30;20.38;;;8.75;;
69750;SDS011;57335;52.288;6.056;2023-10-19T06:14:00;20.85;;;8.00;;
69750;SDS011;57335;52.288;6.056;2023-10-19T06:16:27;21.40;;;8.02;;
69750;SDS011;57335;52.288;6.056;2023-10-19T06:18:54;20.58;;;8.02;;
69750;SDS011;57335;52.288;6.056;2023-10-19T06:21:21;20.80;;;8.05;;
69750;SDS011;57335;52.288;6.056;2023-10-19T06:23:47;19.23;;;7.93;;
69750;SDS011;57335;52.288;6.056;2023-10-19T06:26:14;19.77;;;8.35;;
69750;SDS011;57335;52.288;6.056;2023-10-19T06:28:41;21.65;;;7.82;;
69750;SDS011;57335;52.288;6.056;2023-10-19T06:31:07;21.27;;;8.15;;
69750;SDS011;57335;52.288;6.056;2023-10-19T06:33:35;19.98;;;8.05;;
69750;SDS011;57335;52.288;6.056;2023-10-19T06:36:02;19.63;;;8.07;;
69750;SDS011;57335;52.288;6.056;2023-10-19T06:38:29;20.63;;;8.10;;
69750;SDS011;57335;52.288;6.056;2023-10-19T06:40:58;17.15;;;7.72;;
69750;SDS011;57335;52.288;6.056;2023-10-19T06:43:25;21.60;;;7.72;;
69750;SDS011;57335;52.288;6.056;2023-10-19T06:45:57;18.10;;;7.28;;
69750;SDS011;57335;52.288;6.056;2023-10-19T06:48:24;19.55;;;7.80;;
69750;SDS011;57335;52.288;6.056;2023-10-19T06:50:51;18.10;;;8.07;;
69750;SDS011;57335;52.288;6.056;2023-10-19T06:53:18;20.17;;;7.93;;
69750;SDS011;57335;52.288;6.056;2023-10-19T06:55:44;22.55;;;8.18;;
69750;SDS011;57335;52.288;6.056;2023-10-19T06:58:11;20.90;;;7.65;;
69750;SDS011;57335;52.288;6.056;2023-10-19T07:00:38;21.02;;;8.05;;
69750;SDS011;57335;52.288;6.056;2023-10-19T07:03:12;22.27;;;7.97;;
69750;SDS011;57335;52.288;6.056;2023-10-19T07:05:39;20.13;;;8.02;;
69750;SDS011;57335;52.288;6.056;2023-10-19T07:08:06;20.65;;;8.27;;
69750;SDS011;57335;52.288;6.056;2023-10-19T07:10:33;18.70;;;7.40;;
69750;SDS011;57335;52.288;6.056;2023-10-19T07:13:01;20.27;;;8.23;;
69750;SDS011;57335;52.288;6.056;2023-10-19T07:15:28;19.40;;;7.70;;
69750;SDS011;57335;52.288;6.056;2023-10-19T07:17:56;18.30;;;7.85;;
69750;SDS011;57335;52.288;6.056;2023-10-19T07:20:23;20.15;;;8.02;;
69750;SDS011;57335;52.288;6.056;2023-10-19T07:25:22;19.13;;;6.75;;
69750;SDS011;57335;52.288;6.056;2023-10-19T07:27:52;17.65;;;6.93;;
69750;SDS011;57335;52.288;6.056;2023-10-19T07:30:19;16.48;;;7.13;;
69750;SDS011;57335;52.288;6.056;2023-10-19T07:32:53;18.75;;;7.72;;
69750;SDS011;57335;52.288;6.056;2023-10-19T07:35:26;17.10;;;6.72;;
69750;SDS011;57335;52.288;6.056;2023-10-19T07:37:54;14.73;;;6.32;;
69750;SDS011;57335;52.288;6.056;2023-10-19T07:40:23;16.23;;;6.78;;
69750;SDS011;57335;52.288;6.056;2023-10-19T07:42:50;17.75;;;6.65;;
69750;SDS011;57335;52.288;6.056;2023-10-19T07:45:19;18.63;;;7.05;;
69750;SDS011;57335;52.288;6.056;2023-10-19T07:47:46;17.77;;;7.03;;
69750;SDS011;57335;52.288;6.056;2023-10-19T07:50:13;16.02;;;6.28;;
69750;SDS011;57335;52.288;6.056;2023-10-19T07:52:43;15.70;;;6.40;;
69750;SDS011;57335;52.288;6.056;2023-10-19T07:55:11;16.00;;;6.70;;
69750;SDS011;57335;52.288;6.056;2023-10-19T07:57:38;14.93;;;6.30;;
69750;SDS011;57335;52.288;6.056;2023-10-19T08:00:07;12.75;;;5.63;;
69750;SDS011;57335;52.288;6.056;2023-10-19T08:02:36;15.73;;;5.65;;
69750;SDS011;57335;52.288;6.056;2023-10-19T08:05:04;15.93;;;5.65;;
69750;SDS011;57335;52.288;6.056;2023-10-19T08:07:32;14.77;;;5.47;;
69750;SDS011;57335;52.288;6.056;2023-10-19T08:10:00;15.70;;;5.80;;
69750;SDS011;57335;52.288;6.056;2023-10-19T08:12:28;11.98;;;5.47;;
69750;SDS011;57335;52.288;6.056;2023-10-19T08:14:55;12.77;;;5.45;;
69750;SDS011;57335;52.288;6.056;2023-10-19T08:17:22;14.10;;;5.18;;
69750;SDS011;57335;52.288;6.056;2023-10-19T08:19:49;14.05;;;5.82;;
69750;SDS011;57335;52.288;6.056;2023-10-19T08:22:16;12.55;;;5.22;;
69750;SDS011;57335;52.288;6.056;2023-10-19T08:24:43;16.52;;;5.35;;
69750;SDS011;57335;52.288;6.056;2023-10-19T08:27:12;12.30;;;5.53;;
69750;SDS011;57335;52.288;6.056;2023-10-19T08:29:39;13.77;;;5.20;;
69750;SDS011;57335;52.288;6.056;2023-10-19T08:32:05;11.23;;;4.82;;
69750;SDS011;57335;52.288;6.056;2023-10-19T08:34:35;14.13;;;5.10;;
69750;SDS011;57335;52.288;6.056;2023-10-19T08:37:02;10.95;;;4.57;;
69750;SDS011;57335;52.288;6.056;2023-10-19T08:39:31;13.90;;;4.97;;
69750;SDS011;57335;52.288;6.056;2023-10-19T08:42:04;13.27;;;4.75;;
69750;SDS011;57335;52.288;6.056;2023-10-19T08:44:32;13.43;;;4.43;;
69750;SDS011;57335;52.288;6.056;2023-10-19T08:46:59;11.18;;;4.10;;
69750;SDS011;57335;52.288;6.056;2023-10-19T08:49:25;13.15;;;4.45;;
69750;SDS011;57335;52.288;6.056;2023-10-19T08:51:55;10.15;;;3.80;;
69750;SDS011;57335;52.288;6.056;2023-10-19T08:54:25;10.10;;;3.85;;
69750;SDS011;57335;52.288;6.056;2023-10-19T08:56:51;12.30;;;3.90;;
69750;SDS011;57335;52.288;6.056;2023-10-19T08:59:18;11.40;;;3.92;;
69750;SDS011;57335;52.288;6.056;2023-10-19T09:01:44;11.68;;;4.07;;
69750;SDS011;57335;52.288;6.056;2023-10-19T09:04:12;12.00;;;3.97;;
69750;SDS011;57335;52.288;6.056;2023-10-19T09:06:45;10.15;;;3.72;;
69750;SDS011;57335;52.288;6.056;2023-10-19T09:09:12;10.15;;;3.67;;
69750;SDS011;57335;52.288;6.056;2023-10-19T09:11:51;12.02;;;3.72;;
69750;SDS011;57335;52.288;6.056;2023-10-19T09:14:31;9.65;;;3.88;;
69750;SDS011;57335;52.288;6.056;2023-10-19T09:17:09;10.05;;;3.58;;
69750;SDS011;57335;52.288;6.056;2023-10-19T09:19:40;9.80;;;3.75;;
69750;SDS011;57335;52.288;6.056;2023-10-19T09:22:08;12.38;;;3.88;;
69750;SDS011;57335;52.288;6.056;2023-10-19T09:24:54;11.15;;;3.67;;
69750;SDS011;57335;52.288;6.056;2023-10-19T09:27:21;11.02;;;3.63;;
69750;SDS011;57335;52.288;6.056;2023-10-19T09:29:48;10.98;;;4.35;;
69750;SDS011;57335;52.288;6.056;2023-10-19T09:32:17;9.70;;;3.55;;
69750;SDS011;57335;52.288;6.056;2023-10-19T09:34:45;10.15;;;3.83;;
69750;SDS011;57335;52.288;6.056;2023-10-19T09:37:14;10.32;;;3.75;;
69750;SDS011;57335;52.288;6.056;2023-10-19T09:39:42;12.45;;;3.88;;
69750;SDS011;57335;52.288;6.056;2023-10-19T09:42:10;12.68;;;3.97;;
69750;SDS011;57335;52.288;6.056;2023-10-19T09:44:40;11.60;;;3.42;;
69750;SDS011;57335;52.288;6.056;2023-10-19T09:47:14;10.48;;;3.45;;
69750;SDS011;57335;52.288;6.056;2023-10-19T09:49:43;12.75;;;3.58;;
69750;SDS011;57335;52.288;6.056;2023-10-19T09:52:10;10.00;;;3.35;;
69750;SDS011;57335;52.288;6.056;2023-10-19T09:57:17;14.30;;;3.50;;
69750;SDS011;57335;52.288;6.056;2023-10-19T09:59:51;11.00;;;3.22;;
69750;SDS011;57335;52.288;6.056;2023-10-19T10:02:24;8.52;;;3.15;;
69750;SDS011;57335;52.288;6.056;2023-10-19T10:04:53;9.90;;;3.28;;
69750;SDS011;57335;52.288;6.056;2023-10-19T10:07:20;10.02;;;3.08;;
69750;SDS011;57335;52.288;6.056;2023-10-19T10:10:06;9.40;;;2.70;;
69750;SDS011;57335;52.288;6.056;2023-10-19T10:12:34;8.40;;;2.78;;
69750;SDS011;57335;52.288;6.056;2023-10-19T10:15:02;8.50;;;2.92;;
69750;SDS011;57335;52.288;6.056;2023-10-19T10:17:34;8.63;;;2.78;;
69750;SDS011;57335;52.288;6.056;2023-10-19T10:22:39;7.22;;;2.38;;
69750;SDS011;57335;52.288;6.056;2023-10-19T10:25:27;13.30;;;2.60;;
69750;SDS011;57335;52.288;6.056;2023-10-19T10:27:55;9.60;;;2.58;;
69750;SDS011;57335;52.288;6.056;2023-10-19T10:30:22;9.68;;;2.63;;
69750;SDS011;57335;52.288;6.056;2023-10-19T10:32:49;9.77;;;2.42;;
69750;SDS011;57335;52.288;6.056;2023-10-19T10:38:07;5.65;;;2.30;;
69750;SDS011;57335;52.288;6.056;2023-10-19T10:40:47;10.40;;;2.53;;
69750;SDS011;57335;52.288;6.056;2023-10-19T10:43:14;10.45;;;2.47;;
69750;SDS011;57335;52.288;6.056;2023-10-19T10:45:42;9.38;;;2.42;;
69750;SDS011;57335;52.288;6.056;2023-10-19T10:48:13;9.13;;;2.97;;
69750;SDS011;57335;52.288;6.056;2023-10-19T10:50:41;9.82;;;2.78;;
69750;SDS011;57335;52.288;6.056;2023-10-19T10:53:08;9.82;;;2.40;;
69750;SDS011;57335;52.288;6.056;2023-10-19T10:55:38;8.85;;;2.65;;
69750;SDS011;57335;52.288;6.056;2023-10-19T10:58:05;9.77;;;2.60;;
69750;SDS011;57335;52.288;6.056;2023-10-19T11:00:32;7.55;;;2.65;;
69750;SDS011;57335;52.288;6.056;2023-10-19T11:03:05;11.32;;;3.03;;
69750;SDS011;57335;52.288;6.056;2023-10-19T11:05:36;9.68;;;2.72;;
69750;SDS011;57335;52.288;6.056;2023-10-19T11:08:07;10.77;;;2.80;;
69750;SDS011;57335;52.288;6.056;2023-10-19T11:13:06;9.50;;;2.83;;
69750;SDS011;57335;52.288;6.056;2023-10-19T11:15:34;8.90;;;2.60;;
69750;SDS011;57335;52.288;6.056;2023-10-19T11:18:01;9.30;;;2.92;;
69750;SDS011;57335;52.288;6.056;2023-10-19T11:20:28;9.95;;;2.95;;
69750;SDS011;57335;52.288;6.056;2023-10-19T11:22:55;9.80;;;2.42;;
69750;SDS011;57335;52.288;6.056;2023-10-19T11:25:24;11.93;;;2.80;;
69750;SDS011;57335;52.288;6.056;2023-10-19T11:27:58;11.45;;;2.92;;
69750;SDS011;57335;52.288;6.056;2023-10-19T11:30:29;9.07;;;2.30;;
69750;SDS011;57335;52.288;6.056;2023-10-19T11:33:01;8.75;;;2.60;;
69750;SDS011;57335;52.288;6.056;2023-10-19T11:35:29;9.77;;;2.75;;
69750;SDS011;57335;52.288;6.056;2023-10-19T11:37:58;7.43;;;2.50;;
69750;SDS011;57335;52.288;6.056;2023-10-19T11:40:26;8.10;;;2.60;;
69750;SDS011;57335;52.288;6.056;2023-10-19T11:42:54;11.15;;;2.83;;
69750;SDS011;57335;52.288;6.056;2023-10-19T11:45:26;10.20;;;2.85;;
69750;SDS011;57335;52.288;6.056;2023-10-19T11:47:53;12.98;;;2.90;;
69750;SDS011;57335;52.288;6.056;2023-10-19T11:50:21;9.10;;;2.63;;
69750;SDS011;57335;52.288;6.056;2023-10-19T11:52:47;9.27;;;2.80;;
69750;SDS011;57335;52.288;6.056;2023-10-19T11:55:14;8.82;;;2.75;;
69750;SDS011;57335;52.288;6.056;2023-10-19T11:57:42;9.60;;;2.90;;
69750;SDS011;57335;52.288;6.056;2023-10-19T12:00:10;10.93;;;3.33;;
69750;SDS011;57335;52.288;6.056;2023-10-19T12:02:40;11.73;;;3.00;;
69750;SDS011;57335;52.288;6.056;2023-10-19T12:05:09;7.40;;;2.80;;
69750;SDS011;57335;52.288;6.056;2023-10-19T12:07:37;10.32;;;3.08;;
69750;SDS011;57335;52.288;6.056;2023-10-19T12:10:05;13.63;;;3.47;;
69750;SDS011;57335;52.288;6.056;2023-10-19T12:12:34;9.50;;;2.75;;
69750;SDS011;57335;52.288;6.056;2023-10-19T12:15:21;11.25;;;2.75;;
69750;SDS011;57335;52.288;6.056;2023-10-19T12:17:48;9.88;;;2.63;;
69750;SDS011;57335;52.288;6.056;2023-10-19T12:20:17;9.10;;;2.90;;
69750;SDS011;57335;52.288;6.056;2023-10-19T12:22:48;8.65;;;2.70;;
69750;SDS011;57335;52.288;6.056;2023-10-19T12:25:18;8.52;;;2.70;;
69750;SDS011;57335;52.288;6.056;2023-10-19T12:27:44;11.95;;;2.80;;
69750;SDS011;57335;52.288;6.056;2023-10-19T12:30:11;9.02;;;2.28;;
69750;SDS011;57335;52.288;6.056;2023-10-19T12:32:46;12.82;;;2.88;;
69750;SDS011;57335;52.288;6.056;2023-10-19T12:35:15;10.88;;;2.45;;
69750;SDS011;57335;52.288;6.056;2023-10-19T12:37:44;8.60;;;2.35;;
69750;SDS011;57335;52.288;6.056;2023-10-19T12:40:18;9.90;;;2.88;;
69750;SDS011;57335;52.288;6.056;2023-10-19T12:42:55;8.57;;;2.40;;
69750;SDS011;57335;52.288;6.056;2023-10-19T12:45:22;9.70;;;2.30;;
69750;SDS011;57335;52.288;6.056;2023-10-19T12:47:48;9.10;;;2.38;;
69750;SDS011;57335;52.288;6.056;2023-10-19T12:50:15;10.15;;;2.33;;
69750;SDS011;57335;52.288;6.056;2023-10-19T12:52:42;8.90;;;2.50;;
69750;SDS011;57335;52.288;6.056;2023-10-19T12:55:08;6.85;;;2.00;;
69750;SDS011;57335;52.288;6.056;2023-10-19T12:57:35;7.15;;;2.45;;
69750;SDS011;57335;52.288;6.056;2023-10-19T13:00:01;12.30;;;2.45;;
69750;SDS011;57335;52.288;6.056;2023-10-19T13:02:47;10.15;;;2.60;;
69750;SDS011;57335;52.288;6.056;2023-10-19T13:05:13;9.15;;;2.17;;
69750;SDS011;57335;52.288;6.056;2023-10-19T13:07:44;8.48;;;2.13;;
69750;SDS011;57335;52.288;6.056;2023-10-19T13:10:11;10.85;;;2.42;;
69750;SDS011;57335;52.288;6.056;2023-10-19T13:12:37;8.07;;;2.42;;
69750;SDS011;57335;52.288;6.056;2023-10-19T13:15:04;9.65;;;2.65;;
69750;SDS011;57335;52.288;6.056;2023-10-19T13:17:39;7.50;;;2.22;;
69750;SDS011;57335;52.288;6.056;2023-10-19T13:20:06;8.65;;;2.25;;
69750;SDS011;57335;52.288;6.056;2023-10-19T13:22:42;10.77;;;2.50;;
69750;SDS011;57335;52.288;6.056;2023-10-19T13:25:09;8.40;;;2.20;;
69750;SDS011;57335;52.288;6.056;2023-10-19T13:27:39;9.48;;;2.67;;
69750;SDS011;57335;52.288;6.056;2023-10-19T13:30:08;7.88;;;2.20;;
69750;SDS011;57335;52.288;6.056;2023-10-19T13:32:37;9.57;;;2.30;;
69750;SDS011;57335;52.288;6.056;2023-10-19T13:35:04;10.85;;;2.30;;
69750;SDS011;57335;52.288;6.056;2023-10-19T13:37:31;8.63;;;2.20;;
69750;SDS011;57335;52.288;6.056;2023-10-19T13:39:59;11.68;;;2.47;;
69750;SDS011;57335;52.288;6.056;2023-10-19T13:42:25;7.93;;;2.65;;
69750;SDS011;57335;52.288;6.056;2023-10-19T13:44:52;11.68;;;3.10;;
69750;SDS011;57335;52.288;6.056;2023-10-19T13:47:18;10.55;;;2.47;;
69750;SDS011;57335;52.288;6.056;2023-10-19T13:49:45;13.63;;;3.28;;
69750;SDS011;57335;52.288;6.056;2023-10-19T13:52:12;10.13;;;2.67;;
69750;SDS011;57335;52.288;6.056;2023-10-19T13:54:41;12.68;;;2.85;;
69750;SDS011;57335;52.288;6.056;2023-10-19T13:57:07;11.13;;;2.90;;
69750;SDS011;57335;52.288;6.056;2023-10-19T13:59:34;12.43;;;2.88;;
69750;SDS011;57335;52.288;6.056;2023-10-19T14:02:01;11.77;;;3.25;;
69750;SDS011;57335;52.288;6.056;2023-10-19T14:04:27;11.82;;;2.63;;
69750;SDS011;57335;52.288;6.056;2023-10-19T14:06:54;9.13;;;2.63;;
69750;SDS011;57335;52.288;6.056;2023-10-19T14:09:21;9.15;;;2.65;;
69750;SDS011;57335;52.288;6.056;2023-10-19T14:11:49;11.70;;;3.25;;
69750;SDS011;57335;52.288;6.056;2023-10-19T14:14:16;10.23;;;3.20;;
69750;SDS011;57335;52.288;6.056;2023-10-19T14:16:42;12.38;;;3.17;;
69750;SDS011;57335;52.288;6.056;2023-10-19T14:19:10;8.73;;;2.80;;
69750;SDS011;57335;52.288;6.056;2023-10-19T14:21:37;10.50;;;2.90;;
69750;SDS011;57335;52.288;6.056;2023-10-19T14:24:06;9.77;;;2.97;;
69750;SDS011;57335;52.288;6.056;2023-10-19T14:26:34;10.38;;;2.97;;
69750;SDS011;57335;52.288;6.056;2023-10-19T14:29:01;16.08;;;3.72;;
69750;SDS011;57335;52.288;6.056;2023-10-19T14:31:28;7.85;;;2.60;;
69750;SDS011;57335;52.288;6.056;2023-10-19T14:33:55;9.35;;;2.78;;
69750;SDS011;57335;52.288;6.056;2023-10-19T14:36:21;7.75;;;2.65;;
69750;SDS011;57335;52.288;6.056;2023-10-19T14:38:48;11.90;;;3.00;;
69750;SDS011;57335;52.288;6.056;2023-10-19T14:41:15;10.60;;;2.40;;
69750;SDS011;57335;52.288;6.056;2023-10-19T14:43:41;9.35;;;2.53;;
69750;SDS011;57335;52.288;6.056;2023-10-19T14:46:08;11.10;;;2.80;;
69750;SDS011;57335;52.288;6.056;2023-10-19T14:48:35;11.35;;;2.75;;
69750;SDS011;57335;52.288;6.056;2023-10-19T14:51:02;55.63;;;7.90;;
69750;SDS011;57335;52.288;6.056;2023-10-19T14:53:29;10.50;;;3.10;;
69750;SDS011;57335;52.288;6.056;2023-10-19T14:55:55;8.73;;;3.05;;
69750;SDS011;57335;52.288;6.056;2023-10-19T14:58:23;15.13;;;3.50;;
69750;SDS011;57335;52.288;6.056;2023-10-19T15:00:51;8.63;;;2.67;;
69750;SDS011;57335;52.288;6.056;2023-10-19T15:03:21;8.40;;;2.70;;
69750;SDS011;57335;52.288;6.056;2023-10-19T15:05:50;106.97;;;14.20;;
69750;SDS011;57335;52.288;6.056;2023-10-19T15:08:21;14.38;;;3.03;;